^^
Your Local Weather - Clay, NY Station Historical Data
Daily Summary for January 27, 2018 Units:  Metric    English   Both
« Previous Day
Next Day »
Daily Weekly Monthly Yearly Custom
  High: Low: Average:
Temperature: 10.2 °C -5.1 °C 3.8 °C
Dew Point: 5.1 °C -8.4 °C -1.8 °C
Humidity: 90% 43% 69%
Wind Speed: 11.3km/h 0km/h 4.8km/h
Wind Gust: 17.7km/h - -
Wind- - SSE
Pressure: 1027.3 hPa 1017.5 hPa -
Precipitation: 6.1 mm    
Historical Graphs
 
 
Tabular Data for January 27, 2018
Time Temperature Dew Point Pressure Wind Wind Speed Wind Gust Humidity Rainfall Rate (Hourly) solar
00:02 -4.1 °C -8.1 °C 1027.3 hPa East 3.2 km/h 3.2 km/h 74% 0 mm 0 W/m2
00:08 -4.1 °C -8.1 °C 1027.3 hPa East 3.2 km/h 3.2 km/h 74% 0 mm 0 W/m2
00:13 -4.1 °C -8 °C 1027.3 hPa East 3.2 km/h 4.8 km/h 74% 0 mm 0 W/m2
00:19 -4.2 °C -8.1 °C 1027 hPa East 3.2 km/h 3.2 km/h 74% 0 mm 0 W/m2
00:26 -4.2 °C -7.9 °C 1027 hPa East 3.2 km/h 8 km/h 75% 0 mm 0 W/m2
00:32 -4 °C -7.8 °C 1027 hPa ENE 4.8 km/h 8 km/h 75% 0 mm 0 W/m2
00:38 -4.1 °C -7.9 °C 1026.6 hPa ENE 4.8 km/h 8 km/h 75% 0 mm 0 W/m2
00:43 -4.1 °C -7.9 °C 1026.6 hPa ENE 4.8 km/h 11.3 km/h 75% 0 mm 0 W/m2
00:49 -3.9 °C -7.9 °C 1026.6 hPa ENE 4.8 km/h 6.4 km/h 74% 0 mm 0 W/m2
00:55 -4.1 °C -7.8 °C 1026.3 hPa East 4.8 km/h 6.4 km/h 75% 0 mm 0 W/m2
01:02 -4.3 °C -8.1 °C 1026.3 hPa East 3.2 km/h 3.2 km/h 75% 0 mm 0 W/m2
01:08 -4.6 °C -8.2 °C 1026.3 hPa ENE 3.2 km/h 4.8 km/h 76% 0 mm 0 W/m2
01:13 -4.8 °C -8.4 °C 1026.3 hPa ENE 4.8 km/h 6.4 km/h 76% 0 mm 0 W/m2
01:20 -5.1 °C -8.4 °C 1026.3 hPa ENE 4.8 km/h 6.4 km/h 77% 0 mm 0 W/m2
01:25 -4.8 °C -8.1 °C 1026 hPa ENE 4.8 km/h 8 km/h 78% 0 mm 0 W/m2
01:32 -4.5 °C -7.8 °C 1026 hPa NE 4.8 km/h 4.8 km/h 78% 0 mm 0 W/m2
01:38 -4.4 °C -7.8 °C 1026 hPa ENE 4.8 km/h 6.4 km/h 77% 0 mm 0 W/m2
01:43 -4.5 °C -7.9 °C 1026 hPa ENE 4.8 km/h 4.8 km/h 77% 0 mm 0 W/m2
01:49 -4.4 °C -7.7 °C 1025.3 hPa ESE 4.8 km/h 4.8 km/h 78% 0 mm 0 W/m2
01:56 -3.8 °C -7.1 °C 1026 hPa East 4.8 km/h 4.8 km/h 78% 0 mm 0 W/m2
02:02 -3.9 °C -7.6 °C 1026 hPa East 3.2 km/h 4.8 km/h 76% 0 mm 0 W/m2
02:08 -4.3 °C -7.8 °C 1026 hPa East 3.2 km/h 4.8 km/h 77% 0 mm 0 W/m2
02:14 -4.5 °C -7.8 °C 1026 hPa East 3.2 km/h 4.8 km/h 78% 0 mm 0 W/m2
02:20 -4.7 °C -7.8 °C 1026 hPa East 4.8 km/h 4.8 km/h 79% 0 mm 0 W/m2
02:25 -4.3 °C -7.3 °C 1026 hPa East 3.2 km/h 6.4 km/h 80% 0 mm 0 W/m2
02:32 -4.2 °C -7.3 °C 1025.6 hPa East 4.8 km/h 4.8 km/h 79% 0 mm 0 W/m2
02:38 -4.1 °C -7.2 °C 1025.3 hPa East 4.8 km/h 4.8 km/h 79% 0 mm 0 W/m2
02:43 -3.9 °C -7.2 °C 1025.3 hPa East 4.8 km/h 4.8 km/h 78% 0 mm 0 W/m2
02:49 -3.7 °C -7.1 °C 1025.3 hPa East 4.8 km/h 4.8 km/h 77% 0 mm 0 W/m2
02:56 -3.9 °C -7.3 °C 1024.9 hPa East 3.2 km/h 4.8 km/h 77% 0 mm 0 W/m2
03:02 -3.7 °C -7.2 °C 1025.3 hPa ENE 3.2 km/h 3.2 km/h 77% 0 mm 0 W/m2
03:08 -3.9 °C -7.4 °C 1025.3 hPa East 3.2 km/h 4.8 km/h 77% 0 mm 0 W/m2
03:14 -4.4 °C -7.7 °C 1025.3 hPa NE 3.2 km/h 8 km/h 78% 0 mm 0 W/m2
03:19 -4.5 °C -7.6 °C 1025.3 hPa East 3.2 km/h 3.2 km/h 79% 0 mm 0 W/m2
03:25 -4.6 °C -7.6 °C 1024.9 hPa East 4.8 km/h 4.8 km/h 80% 0 mm 0 W/m2
03:32 -4.6 °C -7.6 °C 1024.9 hPa ENE 4.8 km/h 8 km/h 80% 0 mm 0 W/m2
03:38 -4.3 °C -7.3 °C 1024.9 hPa ENE 4.8 km/h 8 km/h 80% 0 mm 0 W/m2
03:43 -4.1 °C -7.1 °C 1024.6 hPa East 3.2 km/h 6.4 km/h 80% 0 mm 0 W/m2
03:52 -3.9 °C -7.2 °C 1024.9 hPa ESE 3.2 km/h 3.2 km/h 78% 0 mm 0 W/m2
03:58 -4.3 °C -7.6 °C 1024.9 hPa ENE 1.6 km/h 3.2 km/h 78% 0 mm 0 W/m2
04:04 -4.5 °C -7.6 °C 1024.6 hPa ENE 1.6 km/h 1.6 km/h 79% 0 mm 0 W/m2
04:09 -4.4 °C -7.4 °C 1024.6 hPa ENE 1.6 km/h 3.2 km/h 80% 0 mm 0 W/m2
04:15 -4.6 °C -7.5 °C 1024.6 hPa ENE 3.2 km/h 3.2 km/h 80% 0 mm 0 W/m2
04:22 -4.2 °C -7 °C 1024.6 hPa ENE 1.6 km/h 3.2 km/h 81% 0 mm 0 W/m2
04:28 -4.2 °C -7.1 °C 1024.3 hPa ENE 3.2 km/h 3.2 km/h 80% 0 mm 0 W/m2
04:34 -4.1 °C -6.8 °C 1024.3 hPa ENE 1.6 km/h 3.2 km/h 81% 0 mm 0 W/m2
04:39 -3.8 °C -6.8 °C 1024.3 hPa East 3.2 km/h 3.2 km/h 80% 0 mm 0 W/m2
04:46 -3.6 °C -6.5 °C 1024.3 hPa ENE 3.2 km/h 8 km/h 80% 0 mm 0 W/m2
04:52 -3.1 °C -6.2 °C 1024.3 hPa ENE 3.2 km/h 4.8 km/h 79% 0 mm 0 W/m2
04:58 -3.3 °C -6.4 °C 1024.3 hPa ENE 3.2 km/h 4.8 km/h 79% 0 mm 0 W/m2
05:03 -3.5 °C -6.6 °C 1024.3 hPa ENE 4.8 km/h 4.8 km/h 79% 0 mm 0 W/m2
05:09 -3.3 °C -6.2 °C 1023.9 hPa ENE 4.8 km/h 6.4 km/h 80% 0 mm 0 W/m2
05:16 -3.2 °C -6.3 °C 1023.6 hPa East 4.8 km/h 6.4 km/h 79% 0 mm 0 W/m2
05:22 -3.2 °C -6.3 °C 1023.6 hPa East 4.8 km/h 4.8 km/h 79% 0 mm 0 W/m2
05:28 -2.9 °C -6.2 °C 1023.6 hPa ENE 3.2 km/h 4.8 km/h 78% 0 mm 0 W/m2
05:33 -2.7 °C -6 °C 1023.6 hPa East 4.8 km/h 11.3 km/h 78% 0 mm 0 W/m2
05:39 -2.6 °C -6.1 °C 1023.6 hPa ENE 4.8 km/h 6.4 km/h 77% 0 mm 0 W/m2
05:45 -2.6 °C -6.1 °C 1023.2 hPa NE 3.2 km/h 6.4 km/h 77% 0 mm 0 W/m2
05:52 -2.7 °C -6.4 °C 1023.6 hPa ENE 4.8 km/h 6.4 km/h 76% 0 mm 0 W/m2
05:58 -2.8 °C -6.3 °C 1023.2 hPa ENE 4.8 km/h 6.4 km/h 77% 0 mm 0 W/m2
06:04 -2.9 °C -6.2 °C 1023.2 hPa ENE 3.2 km/h 4.8 km/h 78% 0 mm 0 W/m2
06:09 -3.1 °C -6.3 °C 1023.2 hPa ENE 3.2 km/h 3.2 km/h 78% 0 mm 0 W/m2
06:16 -2.8 °C -5.9 °C 1023.2 hPa ENE 3.2 km/h 6.4 km/h 79% 0 mm 0 W/m2
06:22 -2.9 °C -6.2 °C 1023.2 hPa ENE 3.2 km/h 3.2 km/h 78% 0 mm 0 W/m2
06:28 -2.9 °C -6 °C 1023.2 hPa East 3.2 km/h 4.8 km/h 79% 0 mm 0 W/m2
06:33 -2.7 °C -6 °C 1023.2 hPa East 3.2 km/h 4.8 km/h 78% 0 mm 0 W/m2
06:39 -3 °C -6.1 °C 1023.2 hPa East 4.8 km/h 4.8 km/h 79% 0 mm 0 W/m2
06:45 -3.1 °C -6.2 °C 1023.2 hPa East 3.2 km/h 4.8 km/h 79% 0 mm 0 W/m2
06:52 -2.9 °C -5.9 °C 1022.9 hPa East 3.2 km/h 4.8 km/h 80% 0 mm 0 W/m2
06:58 -3 °C -6.1 °C 1022.9 hPa ENE 3.2 km/h 4.8 km/h 79% 0 mm 0 W/m2
07:04 -3.3 °C -6.4 °C 1022.9 hPa ENE 3.2 km/h 4.8 km/h 79% 0 mm 0 W/m2
07:09 -3.3 °C -6.3 °C 1022.9 hPa ENE 3.2 km/h 3.2 km/h 80% 0 mm 0 W/m2
07:15 -3.1 °C -5.8 °C 1022.6 hPa ENE 1.6 km/h 4.8 km/h 81% 0 mm 0 W/m2
07:22 -3.1 °C -5.8 °C 1022.6 hPa ENE 1.6 km/h 3.2 km/h 81% 0 mm 7 W/m2
07:28 -2.6 °C -5.4 °C 1022.6 hPa ENE 1.6 km/h 3.2 km/h 81% 0 mm 9 W/m2
07:34 -2.2 °C -5.4 °C 1022.6 hPa ENE 1.6 km/h 1.6 km/h 79% 0 mm 12 W/m2
07:39 -2.2 °C -5.3 °C 1022.6 hPa Calm   1.6 km/h 79% 0 mm 16 W/m2
07:45 -2.3 °C -5.6 °C 1022.6 hPa ENE 1.6 km/h 3.2 km/h 78% 0 mm 25 W/m2
07:52 -1.7 °C -4.8 °C 1022.6 hPa SE 1.6 km/h 4.8 km/h 79% 0 mm 30 W/m2
07:58 -1.6 °C -5.1 °C 1022.6 hPa SE 1.6 km/h 4.8 km/h 77% 0 mm 37 W/m2
08:03 -0.1 °C -3.4 °C 1022.2 hPa SW 1.6 km/h 1.6 km/h 78% 0 mm 46 W/m2
08:09 3.9 °C -1.8 °C 1022.2 hPa SSE 6.4 km/h 8 km/h 66% 0 mm 53 W/m2
08:16 5.4 °C -2.9 °C 1022.2 hPa SW 8 km/h 12.9 km/h 55% 0 mm 54 W/m2
08:22 5.7 °C -3.4 °C 1022.2 hPa SSE 8 km/h 8 km/h 52% 0 mm 56 W/m2
08:28 5.8 °C -3.6 °C 1021.9 hPa SSE 6.4 km/h 11.3 km/h 51% 0 mm 62 W/m2
08:33 5.9 °C -3.7 °C 1021.9 hPa SSW 8 km/h 11.3 km/h 50% 0 mm 65 W/m2
08:39 6.2 °C -3.5 °C 1021.9 hPa South 8 km/h 8 km/h 50% 0 mm 65 W/m2
08:45 6.2 °C -3.7 °C 1021.9 hPa South 8 km/h 8 km/h 49% 0 mm 67 W/m2
08:52 6.4 °C -3.8 °C 1021.9 hPa SW 8 km/h 14.5 km/h 48% 0 mm 65 W/m2
08:58 6.6 °C -3.9 °C 1021.9 hPa South 8 km/h 16.1 km/h 47% 0 mm 76 W/m2
09:03 6.7 °C -3.9 °C 1021.9 hPa SW 8 km/h 9.7 km/h 47% 0 mm 88 W/m2
09:09 6.8 °C -3.5 °C 1021.9 hPa South 6.4 km/h 8 km/h 48% 0 mm 114 W/m2
09:15 6.9 °C -3.6 °C 1021.9 hPa South 6.4 km/h 8 km/h 47% 0 mm 135 W/m2
09:22 7.2 °C -3.7 °C 1021.9 hPa SW 6.4 km/h 9.7 km/h 46% 0 mm 116 W/m2
09:28 7.2 °C -3.7 °C 1021.9 hPa South 6.4 km/h 11.3 km/h 46% 0 mm 107 W/m2
09:33 7.3 °C -3.6 °C 1021.9 hPa SW 6.4 km/h 12.9 km/h 46% 0 mm 113 W/m2
09:39 7.4 °C -3.5 °C 1021.9 hPa SSE 6.4 km/h 8 km/h 46% 0 mm 165 W/m2
09:45 7.6 °C -3.3 °C 1021.9 hPa South 6.4 km/h 9.7 km/h 46% 0 mm 213 W/m2
09:52 7.8 °C -3.4 °C 1021.9 hPa SW 8 km/h 8 km/h 45% 0 mm 288 W/m2
09:58 8.2 °C -3.4 °C 1021.6 hPa South 9.7 km/h 14.5 km/h 44% 0 mm 216 W/m2
10:03 8.3 °C -3.3 °C 1021.6 hPa SSW 11.3 km/h 12.9 km/h 44% 0 mm 260 W/m2
10:09 8.3 °C -3.3 °C 1021.6 hPa SSW 9.7 km/h 11.3 km/h 44% 0 mm 204 W/m2
10:15 8.4 °C -3.2 °C 1021.6 hPa SW 9.7 km/h 12.9 km/h 44% 0 mm 265 W/m2
10:22 8.6 °C -3.3 °C 1021.2 hPa SSW 9.7 km/h 14.5 km/h 43% 0 mm 232 W/m2
10:28 8.5 °C -3.1 °C 1021.6 hPa SW 8 km/h 14.5 km/h 44% 0 mm 141 W/m2
10:34 8.4 °C -3.1 °C 1021.6 hPa SW 8 km/h 12.9 km/h 44% 0 mm 107 W/m2
10:39 8.4 °C -3.1 °C 1021.2 hPa SW 9.7 km/h 9.7 km/h 44% 0 mm 114 W/m2
10:45 8.4 °C -3.1 °C 1021.2 hPa SSE 9.7 km/h 9.7 km/h 44% 0 mm 116 W/m2
10:52 8.4 °C -2.8 °C 1020.9 hPa South 9.7 km/h 11.3 km/h 45% 0 mm 100 W/m2
10:58 8.4 °C -3.2 °C 1021.2 hPa SSW 9.7 km/h 11.3 km/h 44% 0 mm 88 W/m2
11:03 8.3 °C -2.9 °C 1020.9 hPa South 8 km/h 16.1 km/h 45% 0 mm 84 W/m2
11:09 8.3 °C -3 °C 1020.9 hPa South 9.7 km/h 11.3 km/h 45% 0 mm 116 W/m2
11:15 8.3 °C -2.9 °C 1020.5 hPa SSW 9.7 km/h 11.3 km/h 45% 0 mm 90 W/m2
11:22 8.3 °C -2.6 °C 1020.5 hPa SSW 9.7 km/h 9.7 km/h 46% 0 mm 100 W/m2
11:28 8.4 °C -2.6 °C 1020.2 hPa SSW 8 km/h 9.7 km/h 46% 0 mm 90 W/m2
11:33 8.4 °C -2.5 °C 1020.2 hPa SSW 8 km/h 9.7 km/h 46% 0 mm 98 W/m2
11:39 8.4 °C -2.5 °C 1020.2 hPa WSW 8 km/h 12.9 km/h 46% 0 mm 76 W/m2
11:42 8.4 °C -2.5 °C 1019.9 hPa South 8 km/h 12.9 km/h 46% 0 mm 65 W/m2
11:48 8.4 °C -2.2 °C 1019.9 hPa SE 8 km/h 8 km/h 47% 0 mm 74 W/m2
11:53 8.4 °C -2.3 °C 1019.9 hPa SSW 6.4 km/h 11.3 km/h 47% 0 mm 69 W/m2
11:59 8.4 °C -2.2 °C 1019.9 hPa SSW 8 km/h 8 km/h 47% 0 mm 93 W/m2
12:05 8.5 °C -2.2 °C 1019.9 hPa SSW 8 km/h 17.7 km/h 47% 0 mm 65 W/m2
12:12 8.6 °C -2.1 °C 1019.9 hPa SSW 8 km/h 8 km/h 47% 0 mm 83 W/m2
12:18 8.6 °C -2.1 °C 1019.9 hPa SW 6.4 km/h 8 km/h 47% 0 mm 65 W/m2
12:23 8.6 °C -2.1 °C 1019.9 hPa SW 4.8 km/h 8 km/h 47% 0 mm 51 W/m2
12:30 8.6 °C -2.1 °C 1019.5 hPa SSW 4.8 km/h 9.7 km/h 47% 0 mm 40 W/m2
12:35 8.6 °C -1.8 °C 1019.2 hPa South 4.8 km/h 9.7 km/h 48% 0 mm 35 W/m2
12:42 8.5 °C -1.6 °C 1018.8 hPa South 6.4 km/h 8 km/h 49% 0 mm 37 W/m2
12:48 8.5 °C -1.6 °C 1018.8 hPa SSW 4.8 km/h 8 km/h 49% 0 mm 30 W/m2
12:53 8.6 °C -1.3 °C 1019.2 hPa West 4.8 km/h 4.8 km/h 50% 0 mm 28 W/m2
12:59 8.6 °C -1.2 °C 1019.2 hPa SW 4.8 km/h 4.8 km/h 50% 0 mm 21 W/m2
13:05 8.6 °C -1.2 °C 1018.5 hPa SW 4.8 km/h 6.4 km/h 50% 0 mm 30 W/m2
13:12 8.7 °C -1.2 °C 1018.8 hPa South 4.8 km/h 6.4 km/h 50% 0 mm 33 W/m2
13:18 8.8 °C -1.4 °C 1018.5 hPa South 4.8 km/h 6.4 km/h 49% 0 mm 32 W/m2
13:23 8.8 °C -1.1 °C 1018.5 hPa SSW 4.8 km/h 8 km/h 50% 0 mm 42 W/m2
13:30 8.9 °C -1 °C 1018.5 hPa SSW 3.2 km/h 6.4 km/h 50% 0 mm 51 W/m2
13:35 8.9 °C -0.9 °C 1018.5 hPa SW 3.2 km/h 6.4 km/h 50% 0 mm 39 W/m2
13:42 9.1 °C -1.1 °C 1018.5 hPa SW 4.8 km/h 4.8 km/h 49% 0 mm 35 W/m2
13:48 9.2 °C -1 °C 1018.5 hPa SW 6.4 km/h 9.7 km/h 49% 0 mm 42 W/m2
13:53 9.2 °C -0.9 °C 1018.5 hPa SSE 6.4 km/h 6.4 km/h 49% 0 mm 40 W/m2
13:59 9.2 °C -0.9 °C 1018.2 hPa SSW 4.8 km/h 11.3 km/h 49% 0 mm 49 W/m2
14:05 9.4 °C -0.8 °C 1018.5 hPa South 6.4 km/h 11.3 km/h 49% 0 mm 46 W/m2
14:12 9.6 °C -0.4 °C 1018.2 hPa SSW 6.4 km/h 6.4 km/h 50% 0 mm 46 W/m2
14:18 9.6 °C -0.4 °C 1018.2 hPa SW 4.8 km/h 8 km/h 50% 0 mm 42 W/m2
14:23 9.7 °C -0.3 °C 1018.2 hPa SSW 4.8 km/h 4.8 km/h 50% 0 mm 40 W/m2
14:29 9.8 °C -0.2 °C 1018.2 hPa South 6.4 km/h 6.4 km/h 50% 0 mm 40 W/m2
14:35 9.9 °C -0.1 °C 1017.8 hPa SSW 6.4 km/h 8 km/h 50% 0 mm 60 W/m2
14:42 9.9 °C -0.1 °C 1018.2 hPa South 6.4 km/h 6.4 km/h 50% 0 mm 47 W/m2
14:48 9.9 °C 0 °C 1018.2 hPa SSE 6.4 km/h 9.7 km/h 50% 0 mm 49 W/m2
14:53 10 °C 0.1 °C 1017.8 hPa SW 8 km/h 12.9 km/h 50% 0 mm 42 W/m2
14:59 10.1 °C 0.1 °C 1017.8 hPa SSW 8 km/h 8 km/h 50% 0 mm 40 W/m2
15:05 10.1 °C 0.2 °C 1017.5 hPa SSE 8 km/h 12.9 km/h 50% 0 mm 54 W/m2
15:12 10.2 °C 0.2 °C 1017.8 hPa SSW 8 km/h 8 km/h 50% 0 mm 33 W/m2
15:18 10.1 °C 0.2 °C 1017.8 hPa SW 4.8 km/h 8 km/h 50% 0 mm 11 W/m2
15:23 10.1 °C 0.2 °C 1017.8 hPa SSW 6.4 km/h 6.4 km/h 50% 0 mm 11 W/m2
15:30 10.2 °C 0.2 °C 1017.5 hPa SSW 6.4 km/h 6.4 km/h 50% 0 mm 12 W/m2
15:35 10.1 °C 0.4 °C 1017.5 hPa SSW 4.8 km/h 8 km/h 51% 0 mm 9 W/m2
15:42 10.1 °C 0.4 °C 1017.5 hPa SSW 6.4 km/h 6.4 km/h 51% 0 mm 9 W/m2
15:48 10 °C 0.3 °C 1017.5 hPa SW 6.4 km/h 6.4 km/h 51% 0 mm 9 W/m2
15:53 9.9 °C 0.3 °C 1017.5 hPa South 4.8 km/h 6.4 km/h 51% 0 mm 7 W/m2
16:00 9.9 °C 0.5 °C 1017.5 hPa South 4.8 km/h 4.8 km/h 52% 0 mm 7 W/m2
16:05 9.8 °C 0.7 °C 1017.5 hPa South 3.2 km/h 6.4 km/h 53% 0 mm 9 W/m2
16:12 9.7 °C 0.8 °C 1017.5 hPa SSW 4.8 km/h 4.8 km/h 54% 0 mm 7 W/m2
16:18 9.7 °C 1.1 °C 1017.5 hPa SSW 4.8 km/h 4.8 km/h 55% 0 mm 9 W/m2
16:23 9.4 °C 1.1 °C 1017.5 hPa SW 3.2 km/h 4.8 km/h 56% 0 mm 0 W/m2
16:30 9.4 °C 1.1 °C 1017.5 hPa South 4.8 km/h 4.8 km/h 56% 0 mm 0 W/m2
16:35 9.4 °C 1.3 °C 1017.5 hPa South 4.8 km/h 6.4 km/h 57% 0 mm 0 W/m2
16:42 9.3 °C 1.5 °C 1017.5 hPa SW 4.8 km/h 6.4 km/h 58% 0 mm 0 W/m2
16:48 9.3 °C 1.7 °C 1017.8 hPa SW 4.8 km/h 9.7 km/h 59% 0 mm 0 W/m2
16:53 9.1 °C 2 °C 1017.8 hPa SW 3.2 km/h 4.8 km/h 61% 0 mm 0 W/m2
17:00 8.8 °C 2.3 °C 1017.8 hPa SW 3.2 km/h 3.2 km/h 64% 0 mm 0 W/m2
17:06 8.5 °C 2.5 °C 1018.2 hPa WSW 3.2 km/h 8 km/h 66% 1.78 mm 0 W/m2
17:12 8.2 °C 2.7 °C 1018.2 hPa SW 4.8 km/h 4.8 km/h 68% 1.78 mm 0 W/m2
17:18 8.1 °C 2.7 °C 1018.2 hPa SW 4.8 km/h 6.4 km/h 69% 1.02 mm 0 W/m2
17:23 7.8 °C 2.7 °C 1018.2 hPa SSW 3.2 km/h 4.8 km/h 70% 1.02 mm 0 W/m2
17:29 7.6 °C 2.8 °C 1018.2 hPa SSW 3.2 km/h 3.2 km/h 72% 1.02 mm 0 W/m2
17:35 7.2 °C 2.7 °C 1018.2 hPa SSW 1.6 km/h 3.2 km/h 73% 1.27 mm 0 W/m2
17:42 6.8 °C 2.8 °C 1018.2 hPa SSW 1.6 km/h 3.2 km/h 76% 1.27 mm 0 W/m2
17:48 6.7 °C 3.1 °C 1018.2 hPa SSW 3.2 km/h 4.8 km/h 78% 1.02 mm 0 W/m2
17:53 6.6 °C 3.2 °C 1018.2 hPa SSW 3.2 km/h 4.8 km/h 79% 1.02 mm 0 W/m2
18:00 6.4 °C 3.2 °C 1018.2 hPa SSW 3.2 km/h 3.2 km/h 80% 1.78 mm 0 W/m2
18:05 6.3 °C 3.3 °C 1018.5 hPa SW 3.2 km/h 8 km/h 81% 1.78 mm 0 W/m2
18:12 6.2 °C 3.3 °C 1018.2 hPa SW 3.2 km/h 4.8 km/h 82% 3.05 mm 0 W/m2
18:18 6.1 °C 3.3 °C 1018.5 hPa SW 3.2 km/h 4.8 km/h 82% 2.03 mm 0 W/m2
18:23 6.1 °C 3.4 °C 1018.5 hPa South 4.8 km/h 8 km/h 83% 1.52 mm 0 W/m2
18:30 6.1 °C 3.4 °C 1018.5 hPa South 6.4 km/h 6.4 km/h 83% 1.52 mm 0 W/m2
18:35 6.1 °C 3.4 °C 1018.5 hPa WSW 6.4 km/h 6.4 km/h 83% 1.52 mm 0 W/m2
18:42 6.1 °C 3.4 °C 1018.5 hPa SW 4.8 km/h 6.4 km/h 83% 1.27 mm 0 W/m2
18:48 6.1 °C 3.4 °C 1018.5 hPa SSW 4.8 km/h 11.3 km/h 83% 1.27 mm 0 W/m2
18:53 6 °C 3.3 °C 1018.5 hPa SW 4.8 km/h 4.8 km/h 83% 2.03 mm 0 W/m2
19:00 5.9 °C 3.4 °C 1018.5 hPa South 4.8 km/h 4.8 km/h 84% 1.52 mm 0 W/m2
19:05 5.9 °C 3.4 °C 1018.5 hPa SSW 3.2 km/h 4.8 km/h 84% 1.27 mm 0 W/m2
19:12 5.8 °C 3.3 °C 1018.8 hPa SW 3.2 km/h 4.8 km/h 84% 1.27 mm 0 W/m2
19:20 5.7 °C 3.4 °C 1018.8 hPa SSW 1.6 km/h 3.2 km/h 85% 1.27 mm 0 W/m2
19:25 5.7 °C 3.3 °C 1018.8 hPa South 1.6 km/h 4.8 km/h 85% 1.27 mm 0 W/m2
19:32 5.6 °C 3.4 °C 1018.8 hPa South 4.8 km/h 4.8 km/h 86% 0 mm 0 W/m2
19:38 5.6 °C 3.4 °C 1018.8 hPa South 3.2 km/h 6.4 km/h 86% 0 mm 0 W/m2
19:43 5.6 °C 3.4 °C 1018.8 hPa South 4.8 km/h 6.4 km/h 86% 0 mm 0 W/m2
19:49 5.6 °C 3.4 °C 1018.8 hPa SSW 4.8 km/h 4.8 km/h 86% 1.78 mm 0 W/m2
19:56 5.6 °C 3.6 °C 1018.8 hPa SSW 4.8 km/h 9.7 km/h 87% 1.27 mm 0 W/m2
20:02 5.6 °C 3.6 °C 1018.8 hPa South 4.8 km/h 4.8 km/h 87% 1.27 mm 0 W/m2
20:08 5.6 °C 3.6 °C 1018.8 hPa South 4.8 km/h 8 km/h 87% 1.52 mm 0 W/m2
20:13 5.6 °C 3.8 °C 1019.2 hPa SSW 4.8 km/h 9.7 km/h 88% 1.52 mm 0 W/m2
20:19 5.6 °C 3.8 °C 1018.8 hPa South 4.8 km/h 4.8 km/h 88% 1.02 mm 0 W/m2
20:25 5.7 °C 3.8 °C 1018.8 hPa SSW 4.8 km/h 6.4 km/h 88% 0 mm 0 W/m2
20:32 5.7 °C 3.9 °C 1018.8 hPa South 4.8 km/h 4.8 km/h 88% 0 mm 0 W/m2
20:38 5.8 °C 3.9 °C 1018.8 hPa South 4.8 km/h 6.4 km/h 88% 0 mm 0 W/m2
20:44 5.8 °C 3.9 °C 1019.2 hPa South 4.8 km/h 8 km/h 88% 0 mm 0 W/m2
20:50 5.7 °C 4.1 °C 1019.2 hPa SSW 3.2 km/h 3.2 km/h 89% 0 mm 0 W/m2
20:55 5.8 °C 4.1 °C 1019.2 hPa SSW 3.2 km/h 3.2 km/h 89% 0 mm 0 W/m2
21:02 5.7 °C 4.1 °C 1019.2 hPa SSW 3.2 km/h 3.2 km/h 89% 1.27 mm 0 W/m2
21:08 5.7 °C 4.1 °C 1019.2 hPa SSW 3.2 km/h 6.4 km/h 89% 1.27 mm 0 W/m2
21:13 5.8 °C 4.1 °C 1019.2 hPa SSW 3.2 km/h 3.2 km/h 89% 1.02 mm 0 W/m2
21:19 5.8 °C 4.3 °C 1019.2 hPa SW 1.6 km/h 3.2 km/h 90% 0 mm 0 W/m2
21:25 5.9 °C 4.4 °C 1019.5 hPa SW 3.2 km/h 11.3 km/h 90% 0 mm 0 W/m2
21:32 5.9 °C 4.4 °C 1019.2 hPa SSW 4.8 km/h 6.4 km/h 90% 0 mm 0 W/m2
21:38 5.9 °C 4.4 °C 1019.2 hPa SSE 4.8 km/h 8 km/h 90% 0 mm 0 W/m2
21:44 5.9 °C 4.4 °C 1019.2 hPa SSE 4.8 km/h 8 km/h 90% 0 mm 0 W/m2
21:49 6 °C 4.5 °C 1019.2 hPa SW 4.8 km/h 6.4 km/h 90% 0 mm 0 W/m2
21:55 6.2 °C 4.7 °C 1019.2 hPa South 4.8 km/h 11.3 km/h 90% 0 mm 0 W/m2
22:02 6.3 °C 4.8 °C 1019.2 hPa SW 3.2 km/h 4.8 km/h 90% 0 mm 0 W/m2
22:08 6.3 °C 4.8 °C 1018.8 hPa SSW 3.2 km/h 4.8 km/h 90% 0 mm 0 W/m2
22:13 6.4 °C 4.9 °C 1018.8 hPa SW 3.2 km/h 4.8 km/h 90% 0 mm 0 W/m2
22:19 6.5 °C 5 °C 1018.8 hPa SSW 4.8 km/h 4.8 km/h 90% 0 mm 0 W/m2
22:25 6.6 °C 5.1 °C 1018.8 hPa South 4.8 km/h 8 km/h 90% 0 mm 0 W/m2
22:32 6.6 °C 5.1 °C 1019.2 hPa SW 4.8 km/h 4.8 km/h 90% 0 mm 0 W/m2
22:38 6.7 °C 5 °C 1018.8 hPa SW 4.8 km/h 8 km/h 89% 0 mm 0 W/m2
22:43 6.7 °C 5.1 °C 1019.2 hPa SW 6.4 km/h 6.4 km/h 89% 0 mm 0 W/m2
22:50 6.7 °C 5.1 °C 1019.2 hPa SW 4.8 km/h 4.8 km/h 89% 0 mm 0 W/m2
22:55 6.7 °C 5 °C 1019.2 hPa SSW 3.2 km/h 4.8 km/h 89% 0 mm 0 W/m2
23:02 6.7 °C 4.8 °C 1018.8 hPa SW 3.2 km/h 4.8 km/h 88% 0 mm 0 W/m2
23:08 6.7 °C 4.9 °C 1018.8 hPa WSW 4.8 km/h 4.8 km/h 88% 0 mm 0 W/m2
23:13 6.7 °C 4.9 °C 1018.8 hPa SW 4.8 km/h 6.4 km/h 88% 0 mm 0 W/m2
23:19 6.7 °C 4.9 °C 1019.2 hPa SW 3.2 km/h 8 km/h 88% 0 mm 0 W/m2
23:26 6.7 °C 4.8 °C 1019.2 hPa WSW 3.2 km/h 8 km/h 88% 0 mm 0 W/m2
23:32 6.6 °C 4.8 °C 1019.2 hPa WSW 3.2 km/h 6.4 km/h 88% 0 mm 0 W/m2
23:38 6.7 °C 4.7 °C 1019.5 hPa SSW 3.2 km/h 6.4 km/h 87% 0 mm 0 W/m2
23:43 6.7 °C 4.8 °C 1019.5 hPa SW 3.2 km/h 6.4 km/h 88% 0 mm 0 W/m2
23:49 6.8 °C 4.8 °C 1019.5 hPa SW 4.8 km/h 6.4 km/h 87% 0 mm 0 W/m2
23:56 6.8 °C 4.8 °C 1019.5 hPa WSW 4.8 km/h 6.4 km/h 87% 0 mm 0 W/m2
Country Meadow, Clay, NY, USA
Compliments of Weather Underground - 2 mb